sensor_id;sensor_type;location;lat;lon;timestamp;temperature;humidity
9033;DHT22;4551;53.164;8.210;2022-09-09T00:02:26;15.40;99.90
9033;DHT22;4551;53.164;8.210;2022-09-09T00:04:58;15.30;99.90
9033;DHT22;4551;53.164;8.210;2022-09-09T00:07:33;15.30;99.90
9033;DHT22;4551;53.164;8.210;2022-09-09T00:10:09;15.30;99.90
9033;DHT22;4551;53.164;8.210;2022-09-09T00:12:42;15.30;99.90
9033;DHT22;4551;53.164;8.210;2022-09-09T00:15:17;15.30;99.90
9033;DHT22;4551;53.164;8.210;2022-09-09T00:17:47;15.20;99.90
9033;DHT22;4551;53.164;8.210;2022-09-09T00:20:19;15.20;99.90
9033;DHT22;4551;53.164;8.210;2022-09-09T00:22:53;15.20;99.90
9033;DHT22;4551;53.164;8.210;2022-09-09T00:25:27;15.20;99.90
9033;DHT22;4551;53.164;8.210;2022-09-09T00:27:56;15.10;99.90
9033;DHT22;4551;53.164;8.210;2022-09-09T00:30:24;15.10;99.90
9033;DHT22;4551;53.164;8.210;2022-09-09T00:32:53;15.10;99.90
9033;DHT22;4551;53.164;8.210;2022-09-09T00:35:25;15.10;99.90
9033;DHT22;4551;53.164;8.210;2022-09-09T00:37:58;15.10;99.90
9033;DHT22;4551;53.164;8.210;2022-09-09T00:40:29;15.10;99.90
9033;DHT22;4551;53.164;8.210;2022-09-09T00:43:14;15.00;99.90
9033;DHT22;4551;53.164;8.210;2022-09-09T00:48:32;15.00;99.90
9033;DHT22;4551;53.164;8.210;2022-09-09T00:51:04;14.90;99.90
9033;DHT22;4551;53.164;8.210;2022-09-09T00:53:42;14.90;99.90
9033;DHT22;4551;53.164;8.210;2022-09-09T00:56:13;14.90;99.90
9033;DHT22;4551;53.164;8.210;2022-09-09T00:58:42;14.90;99.90
9033;DHT22;4551;53.164;8.210;2022-09-09T01:01:11;14.80;99.90
9033;DHT22;4551;53.164;8.210;2022-09-09T01:03:42;14.80;99.90
9033;DHT22;4551;53.164;8.210;2022-09-09T01:06:13;14.80;99.90
9033;DHT22;4551;53.164;8.210;2022-09-09T01:08:55;14.80;99.90
9033;DHT22;4551;53.164;8.210;2022-09-09T01:11:26;14.80;99.90
9033;DHT22;4551;53.164;8.210;2022-09-09T01:13:56;14.80;99.90
9033;DHT22;4551;53.164;8.210;2022-09-09T01:16:27;14.80;99.90
9033;DHT22;4551;53.164;8.210;2022-09-09T01:18:56;14.80;99.90
9033;DHT22;4551;53.164;8.210;2022-09-09T01:21:27;14.80;99.90
9033;DHT22;4551;53.164;8.210;2022-09-09T01:24:05;14.80;99.90
9033;DHT22;4551;53.164;8.210;2022-09-09T01:26:37;14.80;99.90
9033;DHT22;4551;53.164;8.210;2022-09-09T01:29:07;14.80;99.90
9033;DHT22;4551;53.164;8.210;2022-09-09T01:31:36;14.70;99.90
9033;DHT22;4551;53.164;8.210;2022-09-09T01:34:09;14.70;99.90
9033;DHT22;4551;53.164;8.210;2022-09-09T01:36:38;14.80;99.90
9033;DHT22;4551;53.164;8.210;2022-09-09T01:39:07;14.70;99.90
9033;DHT22;4551;53.164;8.210;2022-09-09T01:41:35;14.70;99.90
9033;DHT22;4551;53.164;8.210;2022-09-09T01:44:04;14.70;99.90
9033;DHT22;4551;53.164;8.210;2022-09-09T01:46:33;14.70;99.90
9033;DHT22;4551;53.164;8.210;2022-09-09T01:49:02;14.60;99.90
9033;DHT22;4551;53.164;8.210;2022-09-09T01:51:30;14.60;99.90
9033;DHT22;4551;53.164;8.210;2022-09-09T01:53:58;14.60;99.90
9033;DHT22;4551;53.164;8.210;2022-09-09T01:56:35;14.60;99.90
9033;DHT22;4551;53.164;8.210;2022-09-09T01:59:24;14.60;99.90
9033;DHT22;4551;53.164;8.210;2022-09-09T02:02:05;14.60;99.90
9033;DHT22;4551;53.164;8.210;2022-09-09T02:04:37;14.60;99.90
9033;DHT22;4551;53.164;8.210;2022-09-09T02:07:07;14.60;99.90
9033;DHT22;4551;53.164;8.210;2022-09-09T02:09:38;14.70;99.90
9033;DHT22;4551;53.164;8.210;2022-09-09T02:12:09;14.60;99.90
9033;DHT22;4551;53.164;8.210;2022-09-09T02:14:41;14.70;99.90
9033;DHT22;4551;53.164;8.210;2022-09-09T02:17:11;14.60;99.90
9033;DHT22;4551;53.164;8.210;2022-09-09T02:19:42;14.60;99.90
9033;DHT22;4551;53.164;8.210;2022-09-09T02:22:12;14.60;99.90
9033;DHT22;4551;53.164;8.210;2022-09-09T02:24:41;14.60;99.90
9033;DHT22;4551;53.164;8.210;2022-09-09T02:27:09;14.60;99.90
9033;DHT22;4551;53.164;8.210;2022-09-09T02:29:39;14.60;99.90
9033;DHT22;4551;53.164;8.210;2022-09-09T02:32:11;14.60;99.90
9033;DHT22;4551;53.164;8.210;2022-09-09T02:34:40;14.60;99.90
9033;DHT22;4551;53.164;8.210;2022-09-09T02:37:09;14.60;99.90
9033;DHT22;4551;53.164;8.210;2022-09-09T02:39:38;14.60;99.90
9033;DHT22;4551;53.164;8.210;2022-09-09T02:42:06;14.50;99.90
9033;DHT22;4551;53.164;8.210;2022-09-09T02:44:34;14.50;99.90
9033;DHT22;4551;53.164;8.210;2022-09-09T02:49:51;14.40;99.90
9033;DHT22;4551;53.164;8.210;2022-09-09T02:52:26;14.50;99.90
9033;DHT22;4551;53.164;8.210;2022-09-09T02:54:57;14.40;99.90
9033;DHT22;4551;53.164;8.210;2022-09-09T02:57:27;14.40;99.90
9033;DHT22;4551;53.164;8.210;2022-09-09T02:59:56;14.40;99.90
9033;DHT22;4551;53.164;8.210;2022-09-09T03:02:25;14.40;99.90
9033;DHT22;4551;53.164;8.210;2022-09-09T03:04:54;14.40;99.90
9033;DHT22;4551;53.164;8.210;2022-09-09T03:07:22;14.40;99.90
9033;DHT22;4551;53.164;8.210;2022-09-09T03:09:50;14.40;99.90
9033;DHT22;4551;53.164;8.210;2022-09-09T03:12:20;14.40;99.90
9033;DHT22;4551;53.164;8.210;2022-09-09T03:14:48;14.40;99.90
9033;DHT22;4551;53.164;8.210;2022-09-09T03:17:16;14.40;99.90
9033;DHT22;4551;53.164;8.210;2022-09-09T03:19:44;14.40;99.90
9033;DHT22;4551;53.164;8.210;2022-09-09T03:22:14;14.40;99.90
9033;DHT22;4551;53.164;8.210;2022-09-09T03:24:42;14.30;99.90
9033;DHT22;4551;53.164;8.210;2022-09-09T03:27:10;14.30;99.90
9033;DHT22;4551;53.164;8.210;2022-09-09T03:29:38;14.30;99.90
9033;DHT22;4551;53.164;8.210;2022-09-09T03:32:06;14.30;99.90
9033;DHT22;4551;53.164;8.210;2022-09-09T03:34:36;14.30;99.90
9033;DHT22;4551;53.164;8.210;2022-09-09T03:37:05;14.20;99.90
9033;DHT22;4551;53.164;8.210;2022-09-09T03:39:35;14.20;99.90
9033;DHT22;4551;53.164;8.210;2022-09-09T03:42:03;14.20;99.90
9033;DHT22;4551;53.164;8.210;2022-09-09T03:44:32;14.20;99.90
9033;DHT22;4551;53.164;8.210;2022-09-09T03:47:00;14.20;99.90
9033;DHT22;4551;53.164;8.210;2022-09-09T03:49:28;14.20;99.90
9033;DHT22;4551;53.164;8.210;2022-09-09T03:51:56;14.20;99.90
9033;DHT22;4551;53.164;8.210;2022-09-09T03:54:25;14.20;99.90
9033;DHT22;4551;53.164;8.210;2022-09-09T03:56:55;14.20;99.90
9033;DHT22;4551;53.164;8.210;2022-09-09T03:59:23;14.20;99.90
9033;DHT22;4551;53.164;8.210;2022-09-09T04:01:52;14.20;99.90
9033;DHT22;4551;53.164;8.210;2022-09-09T04:04:20;14.20;99.90
9033;DHT22;4551;53.164;8.210;2022-09-09T04:06:48;14.20;99.90
9033;DHT22;4551;53.164;8.210;2022-09-09T04:09:18;14.10;99.90
9033;DHT22;4551;53.164;8.210;2022-09-09T04:11:46;14.10;99.90
9033;DHT22;4551;53.164;8.210;2022-09-09T04:14:15;14.10;99.90
9033;DHT22;4551;53.164;8.210;2022-09-09T04:16:43;14.10;99.90
9033;DHT22;4551;53.164;8.210;2022-09-09T04:19:12;14.10;99.90
9033;DHT22;4551;53.164;8.210;2022-09-09T04:21:41;14.10;99.90
9033;DHT22;4551;53.164;8.210;2022-09-09T04:24:09;14.00;99.90
9033;DHT22;4551;53.164;8.210;2022-09-09T04:26:38;14.00;99.90
9033;DHT22;4551;53.164;8.210;2022-09-09T04:29:06;14.00;99.90
9033;DHT22;4551;53.164;8.210;2022-09-09T04:31:35;14.00;99.90
9033;DHT22;4551;53.164;8.210;2022-09-09T04:34:08;14.00;99.90
9033;DHT22;4551;53.164;8.210;2022-09-09T04:36:36;14.00;99.90
9033;DHT22;4551;53.164;8.210;2022-09-09T04:39:07;14.00;99.90
9033;DHT22;4551;53.164;8.210;2022-09-09T04:41:36;14.00;99.90
9033;DHT22;4551;53.164;8.210;2022-09-09T04:44:04;14.00;99.90
9033;DHT22;4551;53.164;8.210;2022-09-09T04:46:32;13.90;99.90
9033;DHT22;4551;53.164;8.210;2022-09-09T04:49:03;13.90;99.90
9033;DHT22;4551;53.164;8.210;2022-09-09T04:51:32;13.90;99.90
9033;DHT22;4551;53.164;8.210;2022-09-09T04:54:00;13.90;99.90
9033;DHT22;4551;53.164;8.210;2022-09-09T04:56:28;13.80;99.90
9033;DHT22;4551;53.164;8.210;2022-09-09T04:58:56;13.90;99.90
9033;DHT22;4551;53.164;8.210;2022-09-09T05:01:25;13.90;99.90
9033;DHT22;4551;53.164;8.210;2022-09-09T05:03:54;13.80;99.90
9033;DHT22;4551;53.164;8.210;2022-09-09T05:06:23;13.80;99.90
9033;DHT22;4551;53.164;8.210;2022-09-09T05:08:52;13.80;99.90
9033;DHT22;4551;53.164;8.210;2022-09-09T05:11:21;13.80;99.90
9033;DHT22;4551;53.164;8.210;2022-09-09T05:13:51;13.80;99.90
9033;DHT22;4551;53.164;8.210;2022-09-09T05:16:20;13.80;99.90
9033;DHT22;4551;53.164;8.210;2022-09-09T05:18:50;13.80;99.90
9033;DHT22;4551;53.164;8.210;2022-09-09T05:21:20;13.80;99.90
9033;DHT22;4551;53.164;8.210;2022-09-09T05:23:51;13.80;99.90
9033;DHT22;4551;53.164;8.210;2022-09-09T05:26:20;13.80;99.90
9033;DHT22;4551;53.164;8.210;2022-09-09T05:28:49;13.80;99.90
9033;DHT22;4551;53.164;8.210;2022-09-09T05:31:18;13.80;99.90
9033;DHT22;4551;53.164;8.210;2022-09-09T05:33:47;13.80;99.90
9033;DHT22;4551;53.164;8.210;2022-09-09T05:36:17;13.80;99.90
9033;DHT22;4551;53.164;8.210;2022-09-09T05:38:46;13.80;99.90
9033;DHT22;4551;53.164;8.210;2022-09-09T05:41:16;13.80;99.90
9033;DHT22;4551;53.164;8.210;2022-09-09T05:43:46;13.90;99.90
9033;DHT22;4551;53.164;8.210;2022-09-09T05:46:16;13.90;99.90
9033;DHT22;4551;53.164;8.210;2022-09-09T05:48:46;13.90;99.90
9033;DHT22;4551;53.164;8.210;2022-09-09T05:51:16;13.90;99.90
9033;DHT22;4551;53.164;8.210;2022-09-09T05:53:45;14.00;99.90
9033;DHT22;4551;53.164;8.210;2022-09-09T05:56:16;14.00;99.90
9033;DHT22;4551;53.164;8.210;2022-09-09T05:58:45;14.10;99.90
9033;DHT22;4551;53.164;8.210;2022-09-09T06:01:17;14.10;99.90
9033;DHT22;4551;53.164;8.210;2022-09-09T06:03:47;14.10;99.90
9033;DHT22;4551;53.164;8.210;2022-09-09T06:06:18;14.20;99.90
9033;DHT22;4551;53.164;8.210;2022-09-09T06:08:48;14.20;99.90
9033;DHT22;4551;53.164;8.210;2022-09-09T06:11:21;14.30;99.90
9033;DHT22;4551;53.164;8.210;2022-09-09T06:13:49;14.30;99.90
9033;DHT22;4551;53.164;8.210;2022-09-09T06:16:22;14.30;99.90
9033;DHT22;4551;53.164;8.210;2022-09-09T06:18:51;14.40;99.90
9033;DHT22;4551;53.164;8.210;2022-09-09T06:21:22;14.40;99.90
9033;DHT22;4551;53.164;8.210;2022-09-09T06:23:51;14.50;99.90
9033;DHT22;4551;53.164;8.210;2022-09-09T06:26:27;14.50;99.90
9033;DHT22;4551;53.164;8.210;2022-09-09T06:28:56;14.50;99.90
9033;DHT22;4551;53.164;8.210;2022-09-09T06:31:26;14.50;99.90
9033;DHT22;4551;53.164;8.210;2022-09-09T06:33:58;14.60;99.90
9033;DHT22;4551;53.164;8.210;2022-09-09T06:36:28;14.60;99.90
9033;DHT22;4551;53.164;8.210;2022-09-09T06:38:57;14.70;99.90
9033;DHT22;4551;53.164;8.210;2022-09-09T06:41:28;14.70;99.90
9033;DHT22;4551;53.164;8.210;2022-09-09T06:43:56;14.70;99.90
9033;DHT22;4551;53.164;8.210;2022-09-09T06:46:26;14.80;99.90
9033;DHT22;4551;53.164;8.210;2022-09-09T06:48:55;14.80;99.90
9033;DHT22;4551;53.164;8.210;2022-09-09T06:51:26;14.80;99.90
9033;DHT22;4551;53.164;8.210;2022-09-09T06:53:56;14.90;99.90
9033;DHT22;4551;53.164;8.210;2022-09-09T06:56:27;14.90;99.90
9033;DHT22;4551;53.164;8.210;2022-09-09T06:58:57;14.90;99.90
9033;DHT22;4551;53.164;8.210;2022-09-09T07:01:29;15.00;99.90
9033;DHT22;4551;53.164;8.210;2022-09-09T07:03:59;15.00;99.90
9033;DHT22;4551;53.164;8.210;2022-09-09T07:06:29;15.00;99.90
9033;DHT22;4551;53.164;8.210;2022-09-09T07:08:59;15.10;99.90
9033;DHT22;4551;53.164;8.210;2022-09-09T07:11:30;15.10;99.90
9033;DHT22;4551;53.164;8.210;2022-09-09T07:13:59;15.10;99.90
9033;DHT22;4551;53.164;8.210;2022-09-09T07:16:28;15.20;99.90
9033;DHT22;4551;53.164;8.210;2022-09-09T07:18:58;15.20;99.90
9033;DHT22;4551;53.164;8.210;2022-09-09T07:21:29;15.30;99.90
9033;DHT22;4551;53.164;8.210;2022-09-09T07:23:58;15.30;99.90
9033;DHT22;4551;53.164;8.210;2022-09-09T07:26:29;15.40;99.90
9033;DHT22;4551;53.164;8.210;2022-09-09T07:28:58;15.50;99.90
9033;DHT22;4551;53.164;8.210;2022-09-09T07:31:27;15.50;99.90
9033;DHT22;4551;53.164;8.210;2022-09-09T07:33:57;15.60;99.90
9033;DHT22;4551;53.164;8.210;2022-09-09T07:36:28;15.70;99.90
9033;DHT22;4551;53.164;8.210;2022-09-09T07:39:01;15.70;99.90
9033;DHT22;4551;53.164;8.210;2022-09-09T07:41:33;15.80;99.90
9033;DHT22;4551;53.164;8.210;2022-09-09T07:44:05;15.80;99.90
9033;DHT22;4551;53.164;8.210;2022-09-09T07:46:34;15.90;99.90
9033;DHT22;4551;53.164;8.210;2022-09-09T07:49:03;15.90;99.90
9033;DHT22;4551;53.164;8.210;2022-09-09T07:51:33;16.00;99.90
9033;DHT22;4551;53.164;8.210;2022-09-09T07:54:03;16.10;99.90
9033;DHT22;4551;53.164;8.210;2022-09-09T07:56:33;16.10;99.90
9033;DHT22;4551;53.164;8.210;2022-09-09T07:59:01;16.20;99.90
9033;DHT22;4551;53.164;8.210;2022-09-09T08:01:32;16.30;99.90
9033;DHT22;4551;53.164;8.210;2022-09-09T08:04:02;16.30;99.90
9033;DHT22;4551;53.164;8.210;2022-09-09T08:06:33;16.40;99.90
9033;DHT22;4551;53.164;8.210;2022-09-09T08:09:02;16.40;99.90
9033;DHT22;4551;53.164;8.210;2022-09-09T08:11:32;16.50;99.90
9033;DHT22;4551;53.164;8.210;2022-09-09T08:14:05;16.60;99.90
9033;DHT22;4551;53.164;8.210;2022-09-09T08:16:36;16.70;99.90
9033;DHT22;4551;53.164;8.210;2022-09-09T08:19:05;16.70;99.90
9033;DHT22;4551;53.164;8.210;2022-09-09T08:21:35;16.70;99.90
9033;DHT22;4551;53.164;8.210;2022-09-09T08:24:05;16.80;99.90
9033;DHT22;4551;53.164;8.210;2022-09-09T08:26:36;16.70;99.90
9033;DHT22;4551;53.164;8.210;2022-09-09T08:29:06;16.80;99.90
9033;DHT22;4551;53.164;8.210;2022-09-09T08:31:36;16.80;99.90
9033;DHT22;4551;53.164;8.210;2022-09-09T08:34:05;16.90;99.90
9033;DHT22;4551;53.164;8.210;2022-09-09T08:36:37;16.90;99.90
9033;DHT22;4551;53.164;8.210;2022-09-09T08:39:07;16.90;99.90
9033;DHT22;4551;53.164;8.210;2022-09-09T08:42:17;17.00;99.90
9033;DHT22;4551;53.164;8.210;2022-09-09T08:45:09;17.00;99.90
9033;DHT22;4551;53.164;8.210;2022-09-09T08:47:48;17.10;99.90
9033;DHT22;4551;53.164;8.210;2022-09-09T08:50:22;17.10;99.90
9033;DHT22;4551;53.164;8.210;2022-09-09T08:52:57;17.20;99.90
9033;DHT22;4551;53.164;8.210;2022-09-09T08:55:37;17.20;99.90
9033;DHT22;4551;53.164;8.210;2022-09-09T08:58:13;17.30;99.90
9033;DHT22;4551;53.164;8.210;2022-09-09T09:00:54;17.30;99.90
9033;DHT22;4551;53.164;8.210;2022-09-09T09:03:33;17.30;99.90
9033;DHT22;4551;53.164;8.210;2022-09-09T09:06:09;17.40;99.90
9033;DHT22;4551;53.164;8.210;2022-09-09T09:08:43;17.40;99.90
9033;DHT22;4551;53.164;8.210;2022-09-09T09:11:13;17.50;99.90
9033;DHT22;4551;53.164;8.210;2022-09-09T09:13:47;17.60;99.90
9033;DHT22;4551;53.164;8.210;2022-09-09T09:16:25;17.60;99.90
9033;DHT22;4551;53.164;8.210;2022-09-09T09:18:54;17.60;99.90
9033;DHT22;4551;53.164;8.210;2022-09-09T09:21:32;17.60;99.90
9033;DHT22;4551;53.164;8.210;2022-09-09T09:24:04;17.60;99.90
9033;DHT22;4551;53.164;8.210;2022-09-09T09:26:35;17.60;99.90
9033;DHT22;4551;53.164;8.210;2022-09-09T09:29:11;17.70;99.90
9033;DHT22;4551;53.164;8.210;2022-09-09T09:31:42;17.80;99.90
9033;DHT22;4551;53.164;8.210;2022-09-09T09:34:13;17.90;99.90
9033;DHT22;4551;53.164;8.210;2022-09-09T09:36:43;17.90;99.90
9033;DHT22;4551;53.164;8.210;2022-09-09T09:39:23;18.00;99.90
9033;DHT22;4551;53.164;8.210;2022-09-09T09:42:13;18.10;99.90
9033;DHT22;4551;53.164;8.210;2022-09-09T09:44:48;18.10;99.90
9033;DHT22;4551;53.164;8.210;2022-09-09T09:47:18;18.20;99.90
9033;DHT22;4551;53.164;8.210;2022-09-09T09:49:53;18.30;99.90
9033;DHT22;4551;53.164;8.210;2022-09-09T09:52:23;18.40;99.90
9033;DHT22;4551;53.164;8.210;2022-09-09T09:54:53;18.40;99.90
9033;DHT22;4551;53.164;8.210;2022-09-09T09:57:26;18.50;99.90
9033;DHT22;4551;53.164;8.210;2022-09-09T10:00:13;18.60;99.90
9033;DHT22;4551;53.164;8.210;2022-09-09T10:02:43;18.70;99.90
9033;DHT22;4551;53.164;8.210;2022-09-09T10:05:16;18.70;99.90
9033;DHT22;4551;53.164;8.210;2022-09-09T10:08:08;18.80;99.90
9033;DHT22;4551;53.164;8.210;2022-09-09T10:10:52;18.80;99.90
9033;DHT22;4551;53.164;8.210;2022-09-09T10:13:29;18.90;99.90
9033;DHT22;4551;53.164;8.210;2022-09-09T10:16:10;18.90;99.90
9033;DHT22;4551;53.164;8.210;2022-09-09T10:18:52;18.90;99.90
9033;DHT22;4551;53.164;8.210;2022-09-09T10:21:45;19.10;99.90
9033;DHT22;4551;53.164;8.210;2022-09-09T10:24:34;19.20;99.90
9033;DHT22;4551;53.164;8.210;2022-09-09T10:27:11;19.10;99.90
9033;DHT22;4551;53.164;8.210;2022-09-09T10:30:03;19.20;99.90
9033;DHT22;4551;53.164;8.210;2022-09-09T10:32:46;19.20;99.90
9033;DHT22;4551;53.164;8.210;2022-09-09T10:35:31;19.30;99.90
9033;DHT22;4551;53.164;8.210;2022-09-09T10:38:18;19.30;99.90
9033;DHT22;4551;53.164;8.210;2022-09-09T10:41:09;19.30;99.90
9033;DHT22;4551;53.164;8.210;2022-09-09T10:44:09;19.30;99.90
9033;DHT22;4551;53.164;8.210;2022-09-09T10:46:53;19.30;99.90
9033;DHT22;4551;53.164;8.210;2022-09-09T10:49:44;19.30;99.90
9033;DHT22;4551;53.164;8.210;2022-09-09T10:52:23;19.40;99.90
9033;DHT22;4551;53.164;8.210;2022-09-09T10:54:59;19.50;99.90
9033;DHT22;4551;53.164;8.210;2022-09-09T10:57:31;19.50;99.90
9033;DHT22;4551;53.164;8.210;2022-09-09T11:00:05;19.60;99.90
9033;DHT22;4551;53.164;8.210;2022-09-09T11:02:36;19.60;99.90
9033;DHT22;4551;53.164;8.210;2022-09-09T11:05:14;19.60;99.90
9033;DHT22;4551;53.164;8.210;2022-09-09T11:07:47;19.60;99.90
9033;DHT22;4551;53.164;8.210;2022-09-09T11:10:22;19.60;99.90
9033;DHT22;4551;53.164;8.210;2022-09-09T11:12:56;19.60;99.90
9033;DHT22;4551;53.164;8.210;2022-09-09T11:15:29;19.70;99.90
9033;DHT22;4551;53.164;8.210;2022-09-09T11:18:02;19.80;99.90
9033;DHT22;4551;53.164;8.210;2022-09-09T11:20:34;19.90;99.90
9033;DHT22;4551;53.164;8.210;2022-09-09T11:23:05;19.90;99.90
9033;DHT22;4551;53.164;8.210;2022-09-09T11:25:41;20.00;99.90
9033;DHT22;4551;53.164;8.210;2022-09-09T11:28:28;20.00;99.90
9033;DHT22;4551;53.164;8.210;2022-09-09T11:31:13;20.10;99.90
9033;DHT22;4551;53.164;8.210;2022-09-09T11:33:59;20.20;99.90
9033;DHT22;4551;53.164;8.210;2022-09-09T11:36:56;20.40;99.90
9033;DHT22;4551;53.164;8.210;2022-09-09T11:39:57;20.50;99.90
9033;DHT22;4551;53.164;8.210;2022-09-09T11:42:26;20.60;99.90
9033;DHT22;4551;53.164;8.210;2022-09-09T11:44:55;20.60;99.90
9033;DHT22;4551;53.164;8.210;2022-09-09T11:47:26;20.60;99.90
9033;DHT22;4551;53.164;8.210;2022-09-09T11:50:22;20.50;99.90
9033;DHT22;4551;53.164;8.210;2022-09-09T11:53:18;20.50;99.90
9033;DHT22;4551;53.164;8.210;2022-09-09T11:56:09;20.50;99.90
9033;DHT22;4551;53.164;8.210;2022-09-09T11:58:54;20.40;99.90
9033;DHT22;4551;53.164;8.210;2022-09-09T12:01:44;20.40;99.90
9033;DHT22;4551;53.164;8.210;2022-09-09T12:04:17;20.40;99.90
9033;DHT22;4551;53.164;8.210;2022-09-09T12:06:52;20.40;99.90
9033;DHT22;4551;53.164;8.210;2022-09-09T12:09:31;20.40;99.90
9033;DHT22;4551;53.164;8.210;2022-09-09T12:12:29;20.40;99.90
9033;DHT22;4551;53.164;8.210;2022-09-09T12:15:16;20.50;99.90
9033;DHT22;4551;53.164;8.210;2022-09-09T12:17:49;20.70;99.90
9033;DHT22;4551;53.164;8.210;2022-09-09T12:20:21;20.70;99.90
9033;DHT22;4551;53.164;8.210;2022-09-09T12:23:13;20.80;99.90
9033;DHT22;4551;53.164;8.210;2022-09-09T12:25:55;20.90;99.90
9033;DHT22;4551;53.164;8.210;2022-09-09T12:28:33;20.80;99.90
9033;DHT22;4551;53.164;8.210;2022-09-09T12:31:11;20.80;99.90
9033;DHT22;4551;53.164;8.210;2022-09-09T12:33:46;20.80;99.90
9033;DHT22;4551;53.164;8.210;2022-09-09T12:36:18;20.70;99.90
9033;DHT22;4551;53.164;8.210;2022-09-09T12:38:47;20.70;99.90
9033;DHT22;4551;53.164;8.210;2022-09-09T12:41:23;20.60;99.90
9033;DHT22;4551;53.164;8.210;2022-09-09T12:43:51;20.50;99.90
9033;DHT22;4551;53.164;8.210;2022-09-09T12:46:32;20.40;99.90
9033;DHT22;4551;53.164;8.210;2022-09-09T12:49:03;20.40;99.90
9033;DHT22;4551;53.164;8.210;2022-09-09T12:51:33;20.40;99.90
9033;DHT22;4551;53.164;8.210;2022-09-09T12:54:03;20.40;99.90
9033;DHT22;4551;53.164;8.210;2022-09-09T12:56:33;20.40;99.90
9033;DHT22;4551;53.164;8.210;2022-09-09T12:59:02;20.30;99.90
9033;DHT22;4551;53.164;8.210;2022-09-09T13:01:31;20.40;99.90
9033;DHT22;4551;53.164;8.210;2022-09-09T13:04:01;20.40;99.90
9033;DHT22;4551;53.164;8.210;2022-09-09T13:06:30;20.40;99.90
9033;DHT22;4551;53.164;8.210;2022-09-09T13:09:00;20.40;99.90
9033;DHT22;4551;53.164;8.210;2022-09-09T13:11:31;20.40;99.90
9033;DHT22;4551;53.164;8.210;2022-09-09T13:14:01;20.30;99.90
9033;DHT22;4551;53.164;8.210;2022-09-09T13:16:31;20.30;99.90
9033;DHT22;4551;53.164;8.210;2022-09-09T13:19:08;20.30;99.90
9033;DHT22;4551;53.164;8.210;2022-09-09T13:21:38;20.30;99.90
9033;DHT22;4551;53.164;8.210;2022-09-09T13:24:24;20.40;99.90
9033;DHT22;4551;53.164;8.210;2022-09-09T13:26:55;20.30;99.90
9033;DHT22;4551;53.164;8.210;2022-09-09T13:29:25;20.40;99.90
9033;DHT22;4551;53.164;8.210;2022-09-09T13:31:54;20.40;99.90
9033;DHT22;4551;53.164;8.210;2022-09-09T13:34:28;20.40;99.90
9033;DHT22;4551;53.164;8.210;2022-09-09T13:36:58;20.40;99.90
9033;DHT22;4551;53.164;8.210;2022-09-09T13:39:28;20.40;99.90
9033;DHT22;4551;53.164;8.210;2022-09-09T13:41:57;20.40;99.90
9033;DHT22;4551;53.164;8.210;2022-09-09T13:44:29;20.40;99.90
9033;DHT22;4551;53.164;8.210;2022-09-09T13:47:04;20.40;99.90
9033;DHT22;4551;53.164;8.210;2022-09-09T13:49:36;20.50;99.90
9033;DHT22;4551;53.164;8.210;2022-09-09T13:52:08;20.50;99.90
9033;DHT22;4551;53.164;8.210;2022-09-09T13:54:37;20.60;99.90
9033;DHT22;4551;53.164;8.210;2022-09-09T13:57:11;20.70;99.90
9033;DHT22;4551;53.164;8.210;2022-09-09T13:59:43;20.90;99.90
9033;DHT22;4551;53.164;8.210;2022-09-09T14:02:31;21.00;99.90
9033;DHT22;4551;53.164;8.210;2022-09-09T14:05:00;21.20;99.90
9033;DHT22;4551;53.164;8.210;2022-09-09T14:07:28;21.20;99.90
9033;DHT22;4551;53.164;8.210;2022-09-09T14:09:56;21.20;99.90
9033;DHT22;4551;53.164;8.210;2022-09-09T14:12:27;21.20;99.90
9033;DHT22;4551;53.164;8.210;2022-09-09T14:14:56;21.00;99.90
9033;DHT22;4551;53.164;8.210;2022-09-09T14:17:24;21.10;99.90
9033;DHT22;4551;53.164;8.210;2022-09-09T14:19:56;21.10;99.90
9033;DHT22;4551;53.164;8.210;2022-09-09T14:22:24;21.10;99.90
9033;DHT22;4551;53.164;8.210;2022-09-09T14:24:53;21.20;99.90
9033;DHT22;4551;53.164;8.210;2022-09-09T14:27:21;21.20;99.90
9033;DHT22;4551;53.164;8.210;2022-09-09T14:29:49;21.20;99.90
9033;DHT22;4551;53.164;8.210;2022-09-09T14:32:19;21.30;99.90
9033;DHT22;4551;53.164;8.210;2022-09-09T14:34:47;21.30;99.90
9033;DHT22;4551;53.164;8.210;2022-09-09T14:37:16;21.20;99.90
9033;DHT22;4551;53.164;8.210;2022-09-09T14:39:45;21.20;99.90
9033;DHT22;4551;53.164;8.210;2022-09-09T14:42:14;21.30;99.90
9033;DHT22;4551;53.164;8.210;2022-09-09T14:44:42;21.30;99.90
9033;DHT22;4551;53.164;8.210;2022-09-09T14:47:10;21.30;99.90
9033;DHT22;4551;53.164;8.210;2022-09-09T14:49:39;21.20;99.90
9033;DHT22;4551;53.164;8.210;2022-09-09T14:52:12;21.20;99.90
9033;DHT22;4551;53.164;8.210;2022-09-09T14:54:40;21.20;99.90
9033;DHT22;4551;53.164;8.210;2022-09-09T14:57:08;21.20;99.90
9033;DHT22;4551;53.164;8.210;2022-09-09T14:59:36;21.20;99.90
9033;DHT22;4551;53.164;8.210;2022-09-09T15:02:04;21.10;99.90
9033;DHT22;4551;53.164;8.210;2022-09-09T15:04:33;21.10;99.90
9033;DHT22;4551;53.164;8.210;2022-09-09T15:07:03;21.00;99.90
9033;DHT22;4551;53.164;8.210;2022-09-09T15:09:31;21.00;99.90
9033;DHT22;4551;53.164;8.210;2022-09-09T15:11:59;21.00;99.90
9033;DHT22;4551;53.164;8.210;2022-09-09T15:14:28;20.90;99.90
9033;DHT22;4551;53.164;8.210;2022-09-09T15:16:57;20.90;99.90
9033;DHT22;4551;53.164;8.210;2022-09-09T15:19:25;20.80;99.90
9033;DHT22;4551;53.164;8.210;2022-09-09T15:21:53;20.70;99.90
9033;DHT22;4551;53.164;8.210;2022-09-09T15:24:23;20.70;99.90
9033;DHT22;4551;53.164;8.210;2022-09-09T15:26:52;20.70;99.90
9033;DHT22;4551;53.164;8.210;2022-09-09T15:29:20;20.60;99.90
9033;DHT22;4551;53.164;8.210;2022-09-09T15:31:48;20.60;99.90
9033;DHT22;4551;53.164;8.210;2022-09-09T15:34:17;20.50;99.90
9033;DHT22;4551;53.164;8.210;2022-09-09T15:36:46;20.50;99.90
9033;DHT22;4551;53.164;8.210;2022-09-09T15:39:16;20.40;99.90
9033;DHT22;4551;53.164;8.210;2022-09-09T15:41:46;20.40;99.90
9033;DHT22;4551;53.164;8.210;2022-09-09T15:44:15;20.30;99.90
9033;DHT22;4551;53.164;8.210;2022-09-09T15:46:45;20.30;99.90
9033;DHT22;4551;53.164;8.210;2022-09-09T15:49:15;20.20;99.90
9033;DHT22;4551;53.164;8.210;2022-09-09T15:51:45;20.20;99.90
9033;DHT22;4551;53.164;8.210;2022-09-09T15:54:16;20.20;99.90
9033;DHT22;4551;53.164;8.210;2022-09-09T15:56:47;20.30;99.90
9033;DHT22;4551;53.164;8.210;2022-09-09T15:59:15;20.40;99.90
9033;DHT22;4551;53.164;8.210;2022-09-09T16:01:44;20.50;99.90
9033;DHT22;4551;53.164;8.210;2022-09-09T16:04:12;20.60;99.90
9033;DHT22;4551;53.164;8.210;2022-09-09T16:06:42;20.60;99.90
9033;DHT22;4551;53.164;8.210;2022-09-09T16:09:11;20.70;99.90
9033;DHT22;4551;53.164;8.210;2022-09-09T16:11:39;20.90;99.90
9033;DHT22;4551;53.164;8.210;2022-09-09T16:14:08;21.10;99.90
9033;DHT22;4551;53.164;8.210;2022-09-09T16:16:37;21.20;99.90
9033;DHT22;4551;53.164;8.210;2022-09-09T16:19:06;21.20;99.90
9033;DHT22;4551;53.164;8.210;2022-09-09T16:21:37;21.20;99.90
9033;DHT22;4551;53.164;8.210;2022-09-09T16:24:07;21.20;99.90
9033;DHT22;4551;53.164;8.210;2022-09-09T16:26:37;21.20;99.90
9033;DHT22;4551;53.164;8.210;2022-09-09T16:29:07;21.10;99.90
9033;DHT22;4551;53.164;8.210;2022-09-09T16:31:36;21.10;99.90
9033;DHT22;4551;53.164;8.210;2022-09-09T16:34:04;21.00;99.90
9033;DHT22;4551;53.164;8.210;2022-09-09T16:36:34;21.00;99.90
9033;DHT22;4551;53.164;8.210;2022-09-09T16:39:04;20.90;99.90
9033;DHT22;4551;53.164;8.210;2022-09-09T16:41:34;20.90;99.90